createdAt,value
2022-09-05T00:00:11.916Z,14.43
2022-09-05T00:05:18.067Z,14.29
2022-09-05T00:11:40.710Z,14.17
2022-09-05T00:16:50.987Z,14.12
2022-09-05T00:24:27.480Z,14.08
2022-09-05T00:28:25.888Z,14.02
2022-09-05T00:34:14.434Z,13.96
2022-09-05T00:39:21.835Z,13.93
2022-09-05T00:44:31.706Z,13.95
2022-09-05T00:50:10.739Z,13.84
2022-09-05T00:55:26.194Z,13.81
2022-09-05T01:00:54.310Z,13.75
2022-09-05T01:06:41.059Z,13.72
2022-09-05T01:12:19.263Z,13.67
2022-09-05T01:17:48.313Z,13.64
2022-09-05T01:23:18.107Z,13.63
2022-09-05T01:29:15.788Z,13.58
2022-09-05T01:34:35.591Z,13.48
2022-09-05T01:40:19.271Z,13.44
2022-09-05T01:45:41.075Z,13.40
2022-09-05T01:51:31.691Z,13.36
2022-09-05T01:56:52.917Z,13.31
2022-09-05T02:02:27.328Z,13.20
2022-09-05T02:08:13.431Z,13.10
2022-09-05T02:13:36.499Z,13.05
2022-09-05T02:19:09.964Z,13.00
2022-09-05T02:24:25.289Z,12.95
2022-09-05T02:30:02.180Z,12.86
2022-09-05T02:35:40.708Z,12.81
2022-09-05T02:45:06.741Z,12.75
2022-09-05T02:46:36.508Z,12.72
2022-09-05T02:57:30.320Z,12.66
2022-09-05T02:58:06.016Z,12.61
2022-09-05T03:03:27.810Z,12.51
2022-09-05T03:09:16.807Z,12.51
2022-09-05T03:15:22.622Z,12.54
2022-09-05T03:20:51.418Z,12.55
2022-09-05T03:26:50.372Z,12.57
2022-09-05T03:32:33.094Z,12.58
2022-09-05T03:37:58.087Z,12.56
2022-09-05T03:43:21.867Z,12.52
2022-09-05T03:48:43.285Z,12.49
2022-09-05T03:57:13.435Z,12.47
2022-09-05T03:59:57.248Z,12.44
2022-09-05T04:08:17.421Z,12.41
2022-09-05T04:11:28.257Z,12.37
2022-09-05T04:17:00.033Z,12.27
2022-09-05T04:22:24.673Z,12.26
2022-09-05T04:28:35.440Z,12.23
2022-09-05T04:34:08.007Z,12.28
2022-09-05T04:39:19.884Z,12.38
2022-09-05T04:44:55.722Z,12.47
2022-09-05T04:50:15.324Z,12.58
2022-09-05T04:55:33.306Z,12.73
2022-09-05T05:06:01.443Z,12.87
2022-09-05T05:06:46.154Z,13.01
2022-09-05T05:17:53.890Z,13.16
2022-09-05T05:18:11.317Z,13.33
2022-09-05T05:23:19.946Z,13.46
2022-09-05T05:28:52.474Z,13.60
2022-09-05T05:34:02.207Z,13.72
2022-09-05T05:39:27.701Z,13.86
2022-09-05T05:44:37.117Z,13.98
2022-09-05T05:50:03.487Z,14.13
2022-09-05T06:01:38.450Z,14.43
2022-09-05T06:07:02.670Z,14.62
2022-09-05T06:15:01.325Z,14.82
2022-09-05T06:18:42.501Z,15.06
2022-09-05T06:24:23.084Z,15.27
2022-09-05T06:29:57.209Z,15.50
2022-09-05T06:35:49.205Z,15.77
2022-09-05T06:41:23.102Z,16.03
2022-09-05T06:46:54.814Z,16.28
2022-09-05T06:52:44.232Z,16.56
2022-09-05T06:58:11.863Z,16.82
2022-09-05T07:03:23.978Z,17.06
2022-09-05T07:09:04.463Z,17.33
2022-09-05T07:14:24.675Z,17.57
2022-09-05T07:19:43.515Z,17.90
2022-09-05T07:24:54.422Z,18.15
2022-09-05T07:30:01.923Z,18.43
2022-09-05T07:35:08.355Z,18.73
2022-09-05T07:40:25.084Z,19.11
2022-09-05T07:45:31.209Z,20.31
2022-09-05T07:55:13.802Z,21.67
2022-09-05T07:57:27.128Z,21.84
2022-09-05T08:02:18.862Z,21.62
2022-09-05T08:07:48.660Z,21.45
2022-09-05T08:13:23.501Z,21.43
2022-09-05T08:18:54.391Z,21.49
2022-09-05T08:24:33.068Z,21.46
2022-09-05T08:30:26.334Z,21.55
2022-09-05T08:35:41.170Z,21.71
2022-09-05T08:41:33.438Z,21.76
2022-09-05T08:47:22.107Z,21.90
2022-09-05T08:52:51.698Z,22.07
2022-09-05T08:58:34.531Z,22.29
2022-09-05T09:05:00.674Z,22.48
2022-09-05T09:10:25.562Z,22.59
2022-09-05T09:16:28.013Z,22.83
2022-09-05T09:22:01.215Z,23.12
2022-09-05T09:27:19.159Z,23.28
2022-09-05T09:32:47.152Z,23.33
2022-09-05T09:38:11.642Z,23.59
2022-09-05T09:43:44.222Z,23.74
2022-09-05T09:49:23.053Z,23.93
2022-09-05T09:55:08.034Z,24.13
2022-09-05T10:00:25.136Z,24.23
2022-09-05T10:10:38.891Z,24.35
2022-09-05T10:12:06.300Z,24.58
2022-09-05T10:17:43.644Z,24.93
2022-09-05T10:23:44.670Z,25.20
2022-09-05T10:29:38.658Z,25.46
2022-09-05T10:35:17.457Z,25.44
2022-09-05T10:40:27.602Z,25.36
2022-09-05T10:45:56.807Z,25.35
2022-09-05T10:51:32.617Z,25.60
2022-09-05T10:56:50.787Z,25.80
2022-09-05T11:02:26.777Z,25.80
2022-09-05T11:07:59.155Z,25.66
2022-09-05T11:13:17.223Z,25.42
2022-09-05T11:18:55.356Z,25.19
2022-09-05T11:24:27.409Z,24.93
2022-09-05T11:29:55.857Z,24.83
2022-09-05T11:39:46.110Z,24.73
2022-09-05T11:41:42.174Z,24.58
2022-09-05T11:47:28.032Z,24.46
2022-09-05T11:52:51.598Z,24.34
2022-09-05T11:58:44.775Z,24.23
2022-09-05T12:05:51.165Z,24.13
2022-09-05T12:10:48.310Z,24.09
2022-09-05T12:16:07.649Z,24.06
2022-09-05T12:21:23.539Z,24.06
2022-09-05T12:27:41.322Z,24.12
2022-09-05T12:33:09.760Z,24.18
2022-09-05T12:40:43.618Z,24.16
2022-09-05T12:44:39.521Z,24.17
2022-09-05T12:49:16.691Z,24.18
2022-09-05T12:54:59.352Z,24.27
2022-09-05T13:03:01.749Z,24.27
2022-09-05T13:06:04.651Z,24.24
2022-09-05T13:14:48.531Z,24.17
2022-09-05T13:16:33.109Z,24.09
2022-09-05T13:21:45.561Z,24.04
2022-09-05T13:26:58.361Z,23.99
2022-09-05T13:38:07.746Z,24.04
2022-09-05T13:38:48.082Z,24.11
2022-09-05T13:43:52.032Z,24.10
2022-09-05T13:49:29.653Z,24.03
2022-09-05T13:54:59.464Z,23.95
2022-09-05T14:00:15.414Z,23.95
2022-09-05T14:05:53.218Z,24.10
2022-09-05T14:10:56.014Z,24.36
2022-09-05T14:16:11.935Z,24.57
2022-09-05T14:21:18.295Z,24.75
2022-09-05T14:26:47.975Z,24.99
2022-09-05T14:37:41.697Z,25.08
2022-09-05T14:38:09.267Z,25.04
2022-09-05T14:43:56.660Z,24.92
2022-09-05T14:49:33.752Z,24.90
2022-09-05T15:02:48.937Z,25.15
2022-09-05T15:05:50.495Z,25.46
2022-09-05T15:12:16.501Z,25.56
2022-09-05T15:16:24.934Z,25.60
2022-09-05T15:21:38.288Z,25.67
2022-09-05T15:26:57.646Z,25.67
2022-09-05T15:32:24.065Z,25.69
2022-09-05T15:37:42.876Z,25.78
2022-09-05T15:42:57.922Z,25.88
2022-09-05T15:48:15.358Z,26.09
2022-09-05T15:53:36.735Z,26.08
2022-09-05T15:58:56.840Z,26.00
2022-09-05T16:08:36.882Z,25.90
2022-09-05T16:10:33.771Z,25.67
2022-09-05T16:19:22.117Z,25.46
2022-09-05T16:23:28.690Z,25.23
2022-09-05T16:26:25.857Z,24.90
2022-09-05T16:31:34.959Z,24.61
2022-09-05T16:37:07.927Z,24.24
2022-09-05T16:42:46.017Z,23.90
2022-09-05T16:48:10.399Z,23.55
2022-09-05T16:53:36.924Z,23.21
2022-09-05T17:04:25.269Z,22.61
2022-09-05T17:09:43.560Z,22.32
2022-09-05T17:14:56.018Z,22.06
2022-09-05T17:20:05.913Z,21.85
2022-09-05T17:29:34.478Z,21.60
2022-09-05T17:36:53.774Z,21.10
2022-09-05T17:42:40.302Z,20.89
2022-09-05T17:47:53.795Z,20.74
2022-09-05T17:53:02.657Z,20.63
2022-09-05T17:58:49.160Z,20.46
2022-09-05T18:03:54.438Z,20.32
2022-09-05T18:08:57.825Z,20.19
2022-09-05T18:14:24.698Z,20.07
2022-09-05T18:19:57.941Z,19.97
2022-09-05T18:25:28.196Z,19.90
2022-09-05T18:35:55.523Z,19.72
2022-09-05T18:41:12.994Z,19.67
2022-09-05T18:46:28.637Z,19.59
2022-09-05T18:51:37.292Z,19.55
2022-09-05T18:57:28.130Z,19.45
2022-09-05T19:02:50.218Z,19.35
2022-09-05T19:07:59.770Z,19.24
2022-09-05T19:13:16.101Z,19.14
2022-09-05T19:18:26.056Z,19.09
2022-09-05T19:23:35.980Z,18.93
2022-09-05T19:36:59.790Z,18.80
2022-09-05T19:37:03.121Z,18.61
2022-09-05T19:44:34.003Z,18.50
2022-09-05T19:47:46.864Z,18.45
2022-09-05T19:50:49.856Z,18.37
2022-09-05T19:55:53.914Z,18.27
2022-09-05T20:01:05.188Z,18.22
2022-09-05T20:06:38.631Z,18.25
2022-09-05T20:11:49.736Z,18.21
2022-09-05T20:16:57.691Z,18.19
2022-09-05T20:22:48.204Z,18.22
2022-09-05T20:27:30.661Z,18.13
2022-09-05T20:32:50.525Z,18.07
2022-09-05T20:43:16.316Z,18.00
2022-09-05T20:43:40.513Z,17.92
2022-09-05T20:54:10.336Z,17.82
2022-09-05T20:54:32.224Z,17.79
2022-09-05T20:59:41.535Z,17.62
2022-09-05T21:05:06.962Z,17.58
2022-09-05T21:10:22.712Z,17.48
2022-09-05T21:15:53.244Z,17.42
2022-09-05T21:21:27.903Z,17.34
2022-09-05T21:26:29.809Z,17.26
2022-09-05T21:31:44.416Z,17.23
2022-09-05T21:36:52.957Z,17.25
2022-09-05T21:42:18.601Z,17.22
2022-09-05T21:47:52.345Z,17.14
2022-09-05T21:54:28.084Z,17.08
2022-09-05T21:59:25.144Z,16.95
2022-09-05T22:03:43.844Z,16.92
2022-09-05T22:08:59.861Z,16.88
2022-09-05T22:14:10.358Z,16.85
2022-09-05T22:19:23.112Z,16.80
2022-09-05T22:24:30.826Z,16.82
2022-09-05T22:29:36.956Z,16.78
2022-09-05T22:34:40.195Z,16.77
2022-09-05T22:39:46.652Z,16.77
2022-09-05T22:44:49.739Z,16.69
2022-09-05T22:49:52.605Z,16.65
2022-09-05T22:54:56.913Z,16.51
2022-09-05T22:59:59.888Z,16.47
2022-09-05T23:05:04.767Z,16.42
2022-09-05T23:10:08.024Z,16.40
2022-09-05T23:15:11.524Z,16.39
2022-09-05T23:20:14.431Z,16.32
2022-09-05T23:25:18.234Z,16.32
2022-09-05T23:30:21.000Z,16.32
2022-09-05T23:35:23.857Z,16.30
2022-09-05T23:40:26.833Z,16.32
2022-09-05T23:45:30.056Z,16.32
2022-09-05T23:50:32.942Z,16.33
2022-09-05T23:55:37.142Z,16.36
